sensor_id;sensor_type;location;lat;lon;timestamp;pressure;altitude;pressure_sealevel;temperature;humidity
85458;BME280;75848;42.706;23.292;2024-02-21T00:00:56;95749.97;;;5.96;71.22
85458;BME280;75848;42.706;23.292;2024-02-21T00:03:21;95746.13;;;5.93;70.20
85458;BME280;75848;42.706;23.292;2024-02-21T00:05:47;95746.88;;;5.94;70.94
85458;BME280;75848;42.706;23.292;2024-02-21T00:08:12;95739.09;;;5.82;70.77
85458;BME280;75848;42.706;23.292;2024-02-21T00:10:38;95732.97;;;5.88;70.90
85458;BME280;75848;42.706;23.292;2024-02-21T00:13:03;95742.63;;;5.93;70.87
85458;BME280;75848;42.706;23.292;2024-02-21T00:15:30;95738.38;;;5.88;70.53
85458;BME280;75848;42.706;23.292;2024-02-21T00:17:58;95739.91;;;5.86;70.74
85458;BME280;75848;42.706;23.292;2024-02-21T00:20:24;95732.97;;;5.85;70.98
85458;BME280;75848;42.706;23.292;2024-02-21T00:22:51;95736.88;;;5.91;70.81
85458;BME280;75848;42.706;23.292;2024-02-21T00:25:17;95744.53;;;5.89;71.22
85458;BME280;75848;42.706;23.292;2024-02-21T00:27:43;95738.78;;;5.90;70.88
85458;BME280;75848;42.706;23.292;2024-02-21T00:30:10;95735.56;;;5.74;71.34
85458;BME280;75848;42.706;23.292;2024-02-21T00:32:35;95740.56;;;5.76;71.15
85458;BME280;75848;42.706;23.292;2024-02-21T00:35:01;95736.78;;;5.84;70.98
85458;BME280;75848;42.706;23.292;2024-02-21T00:37:27;95743.00;;;5.88;70.89
85458;BME280;75848;42.706;23.292;2024-02-21T00:39:54;95721.72;;;5.79;71.07
85458;BME280;75848;42.706;23.292;2024-02-21T00:42:20;95726.81;;;5.84;71.04
85458;BME280;75848;42.706;23.292;2024-02-21T00:44:46;95732.59;;;5.86;71.39
85458;BME280;75848;42.706;23.292;2024-02-21T00:47:12;95732.94;;;5.81;71.57
85458;BME280;75848;42.706;23.292;2024-02-21T00:49:37;95739.00;;;5.75;71.91
85458;BME280;75848;42.706;23.292;2024-02-21T00:52:04;95723.53;;;5.65;72.17
85458;BME280;75848;42.706;23.292;2024-02-21T00:54:30;95726.34;;;5.79;71.30
85458;BME280;75848;42.706;23.292;2024-02-21T00:56:55;95718.25;;;5.75;71.42
85458;BME280;75848;42.706;23.292;2024-02-21T00:59:21;95722.16;;;5.81;71.68
85458;BME280;75848;42.706;23.292;2024-02-21T01:01:46;95718.28;;;5.79;71.69
85458;BME280;75848;42.706;23.292;2024-02-21T01:04:12;95706.69;;;5.75;71.35
85458;BME280;75848;42.706;23.292;2024-02-21T01:06:37;95710.91;;;5.72;71.53
85458;BME280;75848;42.706;23.292;2024-02-21T01:09:03;95701.09;;;5.47;71.73
85458;BME280;75848;42.706;23.292;2024-02-21T01:11:29;95707.28;;;5.51;72.36
85458;BME280;75848;42.706;23.292;2024-02-21T01:13:55;95711.97;;;5.61;72.48
85458;BME280;75848;42.706;23.292;2024-02-21T01:16:21;95706.53;;;5.54;72.16
85458;BME280;75848;42.706;23.292;2024-02-21T01:18:47;95704.00;;;5.75;70.96
85458;BME280;75848;42.706;23.292;2024-02-21T01:21:13;95691.78;;;5.84;70.87
85458;BME280;75848;42.706;23.292;2024-02-21T01:23:39;95710.16;;;5.75;71.50
85458;BME280;75848;42.706;23.292;2024-02-21T01:26:05;95700.28;;;5.90;71.06
85458;BME280;75848;42.706;23.292;2024-02-21T01:28:32;95702.16;;;5.82;71.56
85458;BME280;75848;42.706;23.292;2024-02-21T01:30:57;95697.47;;;5.76;71.70
85458;BME280;75848;42.706;23.292;2024-02-21T01:33:24;95693.22;;;5.75;71.70
85458;BME280;75848;42.706;23.292;2024-02-21T01:35:49;95698.28;;;5.80;71.31
85458;BME280;75848;42.706;23.292;2024-02-21T01:38:17;95682.88;;;5.77;71.53
85458;BME280;75848;42.706;23.292;2024-02-21T01:40:42;95688.75;;;5.89;70.79
85458;BME280;75848;42.706;23.292;2024-02-21T01:43:19;95694.56;;;5.98;70.61
85458;BME280;75848;42.706;23.292;2024-02-21T01:45:55;95686.94;;;6.04;70.12
85458;BME280;75848;42.706;23.292;2024-02-21T01:48:22;95680.03;;;6.10;70.47
85458;BME280;75848;42.706;23.292;2024-02-21T01:50:51;95676.53;;;6.02;70.40
85458;BME280;75848;42.706;23.292;2024-02-21T01:53:31;95676.97;;;6.11;70.43
85458;BME280;75848;42.706;23.292;2024-02-21T01:55:58;95676.53;;;6.02;70.62
85458;BME280;75848;42.706;23.292;2024-02-21T01:58:24;95670.75;;;6.07;69.59
85458;BME280;75848;42.706;23.292;2024-02-21T02:00:50;95666.13;;;6.04;69.58
85458;BME280;75848;42.706;23.292;2024-02-21T02:03:16;95671.03;;;5.88;70.38
85458;BME280;75848;42.706;23.292;2024-02-21T02:05:51;95679.13;;;5.85;70.32
85458;BME280;75848;42.706;23.292;2024-02-21T02:08:19;95685.13;;;5.71;71.27
85458;BME280;75848;42.706;23.292;2024-02-21T02:10:49;95678.63;;;5.76;70.65
85458;BME280;75848;42.706;23.292;2024-02-21T02:13:15;95679.41;;;5.80;70.24
85458;BME280;75848;42.706;23.292;2024-02-21T02:15:45;95668.34;;;5.85;70.62
85458;BME280;75848;42.706;23.292;2024-02-21T02:18:14;95673.78;;;5.95;69.53
85458;BME280;75848;42.706;23.292;2024-02-21T02:20:40;95674.50;;;5.89;69.60
85458;BME280;75848;42.706;23.292;2024-02-21T02:23:27;95667.19;;;5.86;69.83
85458;BME280;75848;42.706;23.292;2024-02-21T02:25:52;95665.28;;;5.90;69.72
85458;BME280;75848;42.706;23.292;2024-02-21T02:28:18;95667.22;;;5.93;69.91
85458;BME280;75848;42.706;23.292;2024-02-21T02:30:43;95654.13;;;5.88;70.07
85458;BME280;75848;42.706;23.292;2024-02-21T02:33:10;95661.88;;;5.96;69.77
85458;BME280;75848;42.706;23.292;2024-02-21T02:35:36;95661.50;;;5.98;69.64
85458;BME280;75848;42.706;23.292;2024-02-21T02:38:05;95666.84;;;5.91;69.27
85458;BME280;75848;42.706;23.292;2024-02-21T02:40:34;95662.22;;;5.91;70.00
85458;BME280;75848;42.706;23.292;2024-02-21T02:43:00;95660.53;;;5.76;70.14
85458;BME280;75848;42.706;23.292;2024-02-21T02:45:28;95658.31;;;5.82;70.56
85458;BME280;75848;42.706;23.292;2024-02-21T02:47:53;95654.75;;;5.71;70.45
85458;BME280;75848;42.706;23.292;2024-02-21T02:50:20;95635.09;;;5.67;70.04
85458;BME280;75848;42.706;23.292;2024-02-21T02:52:45;95664.38;;;5.75;70.20
85458;BME280;75848;42.706;23.292;2024-02-21T02:55:11;95656.78;;;5.84;69.77
85458;BME280;75848;42.706;23.292;2024-02-21T02:57:36;95664.00;;;5.77;70.45
85458;BME280;75848;42.706;23.292;2024-02-21T03:00:02;95669.84;;;5.82;70.40
85458;BME280;75848;42.706;23.292;2024-02-21T03:02:28;95660.69;;;5.94;70.13
85458;BME280;75848;42.706;23.292;2024-02-21T03:04:53;95658.25;;;5.78;70.09
85458;BME280;75848;42.706;23.292;2024-02-21T03:07:20;95665.28;;;5.90;70.47
85458;BME280;75848;42.706;23.292;2024-02-21T03:09:46;95654.03;;;5.77;70.70
85458;BME280;75848;42.706;23.292;2024-02-21T03:12:11;95666.34;;;5.78;69.89
85458;BME280;75848;42.706;23.292;2024-02-21T03:14:37;95653.63;;;5.75;70.17
85458;BME280;75848;42.706;23.292;2024-02-21T03:17:03;95666.84;;;5.91;69.75
85458;BME280;75848;42.706;23.292;2024-02-21T03:19:29;95683.00;;;5.91;69.98
85458;BME280;75848;42.706;23.292;2024-02-21T03:21:56;95684.41;;;5.78;69.77
85458;BME280;75848;42.706;23.292;2024-02-21T03:24:21;95679.00;;;5.74;70.54
85458;BME280;75848;42.706;23.292;2024-02-21T03:26:47;95678.34;;;5.84;70.56
85458;BME280;75848;42.706;23.292;2024-02-21T03:29:15;95683.66;;;5.77;70.75
85458;BME280;75848;42.706;23.292;2024-02-21T03:31:41;95683.38;;;5.93;69.67
85458;BME280;75848;42.706;23.292;2024-02-21T03:34:07;95678.78;;;5.97;69.72
85458;BME280;75848;42.706;23.292;2024-02-21T03:36:33;95687.69;;;6.04;69.11
85458;BME280;75848;42.706;23.292;2024-02-21T03:38:59;95692.66;;;5.99;69.80
85458;BME280;75848;42.706;23.292;2024-02-21T03:41:26;95685.38;;;6.03;69.30
85458;BME280;75848;42.706;23.292;2024-02-21T03:43:51;95684.16;;;5.97;69.20
85458;BME280;75848;42.706;23.292;2024-02-21T03:46:17;95692.22;;;5.90;69.28
85458;BME280;75848;42.706;23.292;2024-02-21T03:48:43;95692.25;;;5.97;69.09
85458;BME280;75848;42.706;23.292;2024-02-21T03:51:11;95682.94;;;5.84;68.67
85458;BME280;75848;42.706;23.292;2024-02-21T03:53:36;95702.66;;;5.95;69.29
85458;BME280;75848;42.706;23.292;2024-02-21T03:56:03;95694.56;;;5.95;69.09
85458;BME280;75848;42.706;23.292;2024-02-21T03:58:32;95690.31;;;5.94;68.58
85458;BME280;75848;42.706;23.292;2024-02-21T04:01:00;95700.38;;;6.00;68.26
85458;BME280;75848;42.706;23.292;2024-02-21T04:03:26;95703.72;;;5.87;69.41
85458;BME280;75848;42.706;23.292;2024-02-21T04:05:52;95694.44;;;5.81;69.38
85458;BME280;75848;42.706;23.292;2024-02-21T04:08:20;95694.34;;;5.67;69.56
85458;BME280;75848;42.706;23.292;2024-02-21T04:10:47;95684.09;;;5.83;69.23
85458;BME280;75848;42.706;23.292;2024-02-21T04:13:13;95698.72;;;5.85;68.78
85458;BME280;75848;42.706;23.292;2024-02-21T04:15:39;95681.84;;;5.92;68.66
85458;BME280;75848;42.706;23.292;2024-02-21T04:18:04;95685.31;;;5.96;69.07
85458;BME280;75848;42.706;23.292;2024-02-21T04:20:30;95681.84;;;5.95;69.13
85458;BME280;75848;42.706;23.292;2024-02-21T04:22:58;95691.88;;;5.95;68.57
85458;BME280;75848;42.706;23.292;2024-02-21T04:25:24;95692.28;;;6.00;68.62
85458;BME280;75848;42.706;23.292;2024-02-21T04:27:50;95684.88;;;5.83;68.32
85458;BME280;75848;42.706;23.292;2024-02-21T04:30:17;95687.16;;;5.81;68.83
85458;BME280;75848;42.706;23.292;2024-02-21T04:32:44;95692.22;;;5.86;68.63
85458;BME280;75848;42.706;23.292;2024-02-21T04:35:13;95691.09;;;5.94;68.98
85458;BME280;75848;42.706;23.292;2024-02-21T04:37:41;95669.81;;;5.79;68.74
85458;BME280;75848;42.706;23.292;2024-02-21T04:40:07;95689.19;;;5.95;69.09
85458;BME280;75848;42.706;23.292;2024-02-21T04:42:33;95699.94;;;5.95;68.50
85458;BME280;75848;42.706;23.292;2024-02-21T04:44:58;95687.50;;;5.80;68.69
85458;BME280;75848;42.706;23.292;2024-02-21T04:47:24;95679.75;;;5.75;69.14
85458;BME280;75848;42.706;23.292;2024-02-21T04:49:50;95694.03;;;5.79;68.67
85458;BME280;75848;42.706;23.292;2024-02-21T04:52:15;95689.00;;;5.74;68.99
85458;BME280;75848;42.706;23.292;2024-02-21T04:54:41;95693.91;;;5.61;69.78
85458;BME280;75848;42.706;23.292;2024-02-21T04:57:06;95692.75;;;5.62;69.83
85458;BME280;75848;42.706;23.292;2024-02-21T04:59:33;95687.41;;;5.69;69.88
85458;BME280;75848;42.706;23.292;2024-02-21T05:02:00;95695.81;;;5.61;69.86
85458;BME280;75848;42.706;23.292;2024-02-21T05:04:27;95695.72;;;5.50;70.13
85458;BME280;75848;42.706;23.292;2024-02-21T05:06:56;95694.25;;;5.56;69.79
85458;BME280;75848;42.706;23.292;2024-02-21T05:09:23;95699.31;;;5.65;69.85
85458;BME280;75848;42.706;23.292;2024-02-21T05:11:49;95691.66;;;5.67;69.59
85458;BME280;75848;42.706;23.292;2024-02-21T05:14:14;95710.53;;;5.74;69.87
85458;BME280;75848;42.706;23.292;2024-02-21T05:16:40;95713.44;;;5.51;69.89
85458;BME280;75848;42.706;23.292;2024-02-21T05:19:07;95712.81;;;5.68;69.61
85458;BME280;75848;42.706;23.292;2024-02-21T05:21:36;95713.97;;;5.71;69.98
85458;BME280;75848;42.706;23.292;2024-02-21T05:24:03;95709.75;;;5.70;69.33
85458;BME280;75848;42.706;23.292;2024-02-21T05:26:29;95702.16;;;5.82;69.31
85458;BME280;75848;42.706;23.292;2024-02-21T05:28:55;95702.94;;;5.83;69.11
85458;BME280;75848;42.706;23.292;2024-02-21T05:31:21;95712.97;;;5.86;69.63
85458;BME280;75848;42.706;23.292;2024-02-21T05:33:46;95715.13;;;5.70;70.24
85458;BME280;75848;42.706;23.292;2024-02-21T05:36:13;95706.34;;;5.80;69.04
85458;BME280;75848;42.706;23.292;2024-02-21T05:38:40;95697.97;;;5.88;69.07
85458;BME280;75848;42.706;23.292;2024-02-21T05:41:06;95704.59;;;6.01;68.86
85458;BME280;75848;42.706;23.292;2024-02-21T05:43:31;95703.84;;;6.01;68.37
85458;BME280;75848;42.706;23.292;2024-02-21T05:45:57;95695.69;;;5.94;68.52
85458;BME280;75848;42.706;23.292;2024-02-21T05:48:24;95707.66;;;6.00;68.48
85458;BME280;75848;42.706;23.292;2024-02-21T05:50:54;95693.78;;;5.91;68.49
85458;BME280;75848;42.706;23.292;2024-02-21T05:53:21;95712.63;;;5.91;68.17
85458;BME280;75848;42.706;23.292;2024-02-21T05:55:47;95711.91;;;6.01;68.07
85458;BME280;75848;42.706;23.292;2024-02-21T05:58:17;95719.03;;;5.76;69.06
85458;BME280;75848;42.706;23.292;2024-02-21T06:00:44;95729.53;;;5.91;69.15
85458;BME280;75848;42.706;23.292;2024-02-21T06:03:09;95729.63;;;6.02;68.45
85458;BME280;75848;42.706;23.292;2024-02-21T06:05:40;95725.84;;;6.13;68.29
85458;BME280;75848;42.706;23.292;2024-02-21T06:08:05;95730.25;;;6.39;67.62
85458;BME280;75848;42.706;23.292;2024-02-21T06:10:31;95725.59;;;6.36;67.26
85458;BME280;75848;42.706;23.292;2024-02-21T06:12:57;95741.84;;;6.50;66.85
85458;BME280;75848;42.706;23.292;2024-02-21T06:15:23;95745.00;;;6.73;66.33
85458;BME280;75848;42.706;23.292;2024-02-21T06:17:48;95738.13;;;6.76;65.39
85458;BME280;75848;42.706;23.292;2024-02-21T06:20:16;95745.88;;;6.95;65.32
85458;BME280;75848;42.706;23.292;2024-02-21T06:22:44;95736.28;;;7.04;66.52
85458;BME280;75848;42.706;23.292;2024-02-21T06:25:12;95739.41;;;7.24;65.31
85458;BME280;75848;42.706;23.292;2024-02-21T06:27:43;95740.22;;;7.49;63.99
85458;BME280;75848;42.706;23.292;2024-02-21T06:30:16;95742.91;;;7.52;63.00
85458;BME280;75848;42.706;23.292;2024-02-21T06:32:42;95746.03;;;7.61;63.95
85458;BME280;75848;42.706;23.292;2024-02-21T06:35:07;95755.31;;;7.78;62.89
85458;BME280;75848;42.706;23.292;2024-02-21T06:37:33;95756.44;;;7.63;62.38
85458;BME280;75848;42.706;23.292;2024-02-21T06:40:00;95753.75;;;7.94;62.03
85458;BME280;75848;42.706;23.292;2024-02-21T06:42:25;95758.75;;;8.20;60.19
85458;BME280;75848;42.706;23.292;2024-02-21T06:44:55;95764.16;;;8.48;59.29
85458;BME280;75848;42.706;23.292;2024-02-21T06:47:22;95767.97;;;8.68;58.70
85458;BME280;75848;42.706;23.292;2024-02-21T06:49:50;95766.75;;;8.84;58.56
85458;BME280;75848;42.706;23.292;2024-02-21T06:52:20;95762.47;;;8.90;59.07
85458;BME280;75848;42.706;23.292;2024-02-21T06:54:47;95764.41;;;8.93;57.45
85458;BME280;75848;42.706;23.292;2024-02-21T06:57:13;95761.72;;;8.89;57.17
85458;BME280;75848;42.706;23.292;2024-02-21T06:59:41;95758.38;;;8.36;59.33
85458;BME280;75848;42.706;23.292;2024-02-21T07:02:06;95761.03;;;8.53;58.44
85458;BME280;75848;42.706;23.292;2024-02-21T07:04:32;95768.41;;;8.18;59.14
85458;BME280;75848;42.706;23.292;2024-02-21T07:06:57;95771.88;;;7.90;59.82
85458;BME280;75848;42.706;23.292;2024-02-21T07:09:24;95772.28;;;8.03;61.08
85458;BME280;75848;42.706;23.292;2024-02-21T07:11:50;95779.25;;;7.83;61.33
85458;BME280;75848;42.706;23.292;2024-02-21T07:14:16;95764.94;;;7.89;60.60
85458;BME280;75848;42.706;23.292;2024-02-21T07:16:42;95765.34;;;7.91;60.45
85458;BME280;75848;42.706;23.292;2024-02-21T07:19:08;95762.63;;;7.74;61.31
85458;BME280;75848;42.706;23.292;2024-02-21T07:21:35;95769.97;;;7.84;61.64
85458;BME280;75848;42.706;23.292;2024-02-21T07:24:06;95770.72;;;7.56;61.97
85458;BME280;75848;42.706;23.292;2024-02-21T07:26:37;95770.34;;;7.72;62.12
85458;BME280;75848;42.706;23.292;2024-02-21T07:29:02;95777.69;;;7.92;61.44
85458;BME280;75848;42.706;23.292;2024-02-21T07:31:28;95786.13;;;7.52;62.15
85458;BME280;75848;42.706;23.292;2024-02-21T07:33:54;95780.41;;;7.78;61.36
85458;BME280;75848;42.706;23.292;2024-02-21T07:36:29;95780.38;;;7.71;61.77
85458;BME280;75848;42.706;23.292;2024-02-21T07:38:58;95774.59;;;7.76;61.68
85458;BME280;75848;42.706;23.292;2024-02-21T07:41:25;95775.00;;;7.85;62.14
85458;BME280;75848;42.706;23.292;2024-02-21T07:43:53;95779.59;;;8.09;61.17
85458;BME280;75848;42.706;23.292;2024-02-21T07:46:19;95765.31;;;8.16;61.33
85458;BME280;75848;42.706;23.292;2024-02-21T07:48:46;95775.75;;;7.93;62.26
85458;BME280;75848;42.706;23.292;2024-02-21T07:51:12;95783.09;;;7.99;61.82
85458;BME280;75848;42.706;23.292;2024-02-21T07:53:41;95782.34;;;7.99;62.19
85458;BME280;75848;42.706;23.292;2024-02-21T07:56:14;95772.69;;;8.05;62.22
85458;BME280;75848;42.706;23.292;2024-02-21T07:58:41;95764.56;;;8.33;60.41
85458;BME280;75848;42.706;23.292;2024-02-21T08:01:08;95764.94;;;8.21;61.75
85458;BME280;75848;42.706;23.292;2024-02-21T08:03:34;95764.00;;;8.94;59.52
85458;BME280;75848;42.706;23.292;2024-02-21T08:05:59;95759.72;;;9.04;58.87
85458;BME280;75848;42.706;23.292;2024-02-21T08:08:25;95768.28;;;8.88;59.02
85458;BME280;75848;42.706;23.292;2024-02-21T08:10:52;95760.56;;;8.87;59.90
85458;BME280;75848;42.706;23.292;2024-02-21T08:13:18;95761.41;;;8.66;59.51
85458;BME280;75848;42.706;23.292;2024-02-21T08:15:44;95766.25;;;9.13;58.25
85458;BME280;75848;42.706;23.292;2024-02-21T08:18:11;95760.25;;;9.46;57.65
85458;BME280;75848;42.706;23.292;2024-02-21T08:20:36;95760.06;;;9.78;56.33
85458;BME280;75848;42.706;23.292;2024-02-21T08:23:02;95759.13;;;9.47;56.76
85458;BME280;75848;42.706;23.292;2024-02-21T08:25:28;95756.31;;;9.61;56.25
85458;BME280;75848;42.706;23.292;2024-02-21T08:27:58;95760.56;;;10.13;54.87
85458;BME280;75848;42.706;23.292;2024-02-21T08:30:24;95755.50;;;10.19;55.18
85458;BME280;75848;42.706;23.292;2024-02-21T08:32:50;95760.88;;;10.26;55.11
85458;BME280;75848;42.706;23.292;2024-02-21T08:35:16;95764.22;;;10.40;53.82
85458;BME280;75848;42.706;23.292;2024-02-21T08:37:45;95752.03;;;9.64;55.33
85458;BME280;75848;42.706;23.292;2024-02-21T08:40:14;95767.06;;;9.72;54.57
85458;BME280;75848;42.706;23.292;2024-02-21T08:42:43;95763.13;;;9.83;55.03
85458;BME280;75848;42.706;23.292;2024-02-21T08:45:10;95767.56;;;10.11;54.35
85458;BME280;75848;42.706;23.292;2024-02-21T08:47:38;95765.97;;;10.20;54.58
85458;BME280;75848;42.706;23.292;2024-02-21T08:50:09;95762.53;;;10.53;53.05
85458;BME280;75848;42.706;23.292;2024-02-21T08:52:40;95771.75;;;10.63;52.27
85458;BME280;75848;42.706;23.292;2024-02-21T08:55:06;95756.28;;;10.60;52.04
85458;BME280;75848;42.706;23.292;2024-02-21T08:57:33;95770.13;;;10.28;53.11
85458;BME280;75848;42.706;23.292;2024-02-21T09:00:04;95773.13;;;10.41;53.10
85458;BME280;75848;42.706;23.292;2024-02-21T09:02:40;95757.59;;;9.97;52.97
85458;BME280;75848;42.706;23.292;2024-02-21T09:05:10;95773.81;;;10.04;53.53
85458;BME280;75848;42.706;23.292;2024-02-21T09:07:36;95771.25;;;9.87;54.17
85458;BME280;75848;42.706;23.292;2024-02-21T09:10:02;95780.16;;;9.22;56.23
85458;BME280;75848;42.706;23.292;2024-02-21T09:12:28;95774.28;;;9.27;55.22
85458;BME280;75848;42.706;23.292;2024-02-21T09:14:54;95774.34;;;9.24;55.47
85458;BME280;75848;42.706;23.292;2024-02-21T09:17:21;95771.28;;;9.15;55.23
85458;BME280;75848;42.706;23.292;2024-02-21T09:19:47;95772.84;;;9.09;55.51
85458;BME280;75848;42.706;23.292;2024-02-21T09:22:13;95772.78;;;9.23;55.49
85458;BME280;75848;42.706;23.292;2024-02-21T09:24:39;95771.69;;;9.10;55.97
85458;BME280;75848;42.706;23.292;2024-02-21T09:27:06;95761.09;;;9.36;55.51
85458;BME280;75848;42.706;23.292;2024-02-21T09:29:33;95766.75;;;9.59;54.60
85458;BME280;75848;42.706;23.292;2024-02-21T09:32:00;95772.44;;;9.82;53.72
85458;BME280;75848;42.706;23.292;2024-02-21T09:34:28;95764.41;;;9.65;54.01
85458;BME280;75848;42.706;23.292;2024-02-21T09:36:55;95773.97;;;9.80;54.28
85458;BME280;75848;42.706;23.292;2024-02-21T09:39:21;95766.53;;;9.36;54.47
85458;BME280;75848;42.706;23.292;2024-02-21T09:41:50;95763.84;;;9.26;54.76
85458;BME280;75848;42.706;23.292;2024-02-21T09:44:25;95768.09;;;9.34;54.22
85458;BME280;75848;42.706;23.292;2024-02-21T09:49:47;95763.13;;;9.83;53.09
85458;BME280;75848;42.706;23.292;2024-02-21T09:52:14;95765.97;;;10.20;52.01
85458;BME280;75848;42.706;23.292;2024-02-21T09:54:43;95752.06;;;10.55;51.67
85458;BME280;75848;42.706;23.292;2024-02-21T09:57:12;95756.06;;;11.11;49.21
85458;BME280;75848;42.706;23.292;2024-02-21T09:59:39;95762.03;;;10.99;48.63
85458;BME280;75848;42.706;23.292;2024-02-21T10:02:09;95750.31;;;11.36;47.89
85458;BME280;75848;42.706;23.292;2024-02-21T10:04:41;95760.84;;;11.00;49.54
85458;BME280;75848;42.706;23.292;2024-02-21T10:07:21;95754.47;;;11.14;48.73
85458;BME280;75848;42.706;23.292;2024-02-21T10:10:01;95764.75;;;11.29;47.81
85458;BME280;75848;42.706;23.292;2024-02-21T10:12:27;95753.91;;;11.86;47.30
85458;BME280;75848;42.706;23.292;2024-02-21T10:15:05;95746.97;;;11.81;46.41
85458;BME280;75848;42.706;23.292;2024-02-21T10:17:33;95737.00;;;12.21;46.17
85458;BME280;75848;42.706;23.292;2024-02-21T10:20:24;95744.91;;;13.01;43.58
85458;BME280;75848;42.706;23.292;2024-02-21T10:23:02;95738.53;;;13.07;42.86
85458;BME280;75848;42.706;23.292;2024-02-21T10:25:36;95732.47;;;13.19;43.04
85458;BME280;75848;42.706;23.292;2024-02-21T10:28:15;95722.88;;;12.92;42.69
85458;BME280;75848;42.706;23.292;2024-02-21T10:30:53;95709.84;;;13.38;41.96
85458;BME280;75848;42.706;23.292;2024-02-21T10:33:20;95710.13;;;12.65;43.14
85458;BME280;75848;42.706;23.292;2024-02-21T10:35:52;95697.81;;;12.61;43.73
85458;BME280;75848;42.706;23.292;2024-02-21T10:38:18;95700.03;;;13.25;42.56
85458;BME280;75848;42.706;23.292;2024-02-21T10:40:46;95690.47;;;13.17;42.15
85458;BME280;75848;42.706;23.292;2024-02-21T10:43:15;95685.63;;;13.24;42.50
85458;BME280;75848;42.706;23.292;2024-02-21T10:45:43;95670.88;;;13.57;40.39
85458;BME280;75848;42.706;23.292;2024-02-21T10:48:15;95669.59;;;13.78;40.09
85458;BME280;75848;42.706;23.292;2024-02-21T10:51:18;95671.31;;;13.20;40.65
85458;BME280;75848;42.706;23.292;2024-02-21T10:54:09;95653.28;;;13.26;41.10
85458;BME280;75848;42.706;23.292;2024-02-21T10:56:43;95652.81;;;12.14;42.08
85458;BME280;75848;42.706;23.292;2024-02-21T10:59:10;95660.84;;;11.98;43.90
85458;BME280;75848;42.706;23.292;2024-02-21T11:01:41;95655.00;;;12.42;42.45
85458;BME280;75848;42.706;23.292;2024-02-21T11:04:08;95646.00;;;12.64;41.79
85458;BME280;75848;42.706;23.292;2024-02-21T11:06:38;95639.91;;;12.76;40.54
85458;BME280;75848;42.706;23.292;2024-02-21T11:09:09;95640.53;;;13.04;39.80
85458;BME280;75848;42.706;23.292;2024-02-21T11:11:45;95637.59;;;12.95;38.52
85458;BME280;75848;42.706;23.292;2024-02-21T11:14:20;95635.44;;;13.06;38.01
85458;BME280;75848;42.706;23.292;2024-02-21T11:16:53;95641.28;;;12.84;38.38
85458;BME280;75848;42.706;23.292;2024-02-21T11:19:34;95625.09;;;12.97;38.55
85458;BME280;75848;42.706;23.292;2024-02-21T11:22:00;95631.03;;;12.92;38.23
85458;BME280;75848;42.706;23.292;2024-02-21T11:24:38;95628.25;;;12.76;38.53
85458;BME280;75848;42.706;23.292;2024-02-21T11:27:14;95637.03;;;12.83;39.48
85458;BME280;75848;42.706;23.292;2024-02-21T11:29:49;95635.53;;;12.63;40.94
85458;BME280;75848;42.706;23.292;2024-02-21T11:32:22;95625.13;;;12.38;39.96
85458;BME280;75848;42.706;23.292;2024-02-21T11:35:03;95633.28;;;12.38;40.86
85458;BME280;75848;42.706;23.292;2024-02-21T11:37:33;95632.28;;;12.09;40.87
85458;BME280;75848;42.706;23.292;2024-02-21T11:40:01;95635.66;;;11.94;42.00
85458;BME280;75848;42.706;23.292;2024-02-21T11:42:30;95630.34;;;11.64;42.25
85458;BME280;75848;42.706;23.292;2024-02-21T11:44:57;95620.66;;;11.63;41.91
85458;BME280;75848;42.706;23.292;2024-02-21T11:47:25;95622.38;;;11.76;42.08
85458;BME280;75848;42.706;23.292;2024-02-21T11:49:52;95619.09;;;11.39;42.83
85458;BME280;75848;42.706;23.292;2024-02-21T11:52:29;95618.09;;;11.52;42.11
85458;BME280;75848;42.706;23.292;2024-02-21T11:54:56;95614.34;;;11.43;42.30
85458;BME280;75848;42.706;23.292;2024-02-21T11:57:29;95613.44;;;11.26;42.90
85458;BME280;75848;42.706;23.292;2024-02-21T12:00:14;95615.16;;;11.40;43.74
85458;BME280;75848;42.706;23.292;2024-02-21T12:02:40;95606.22;;;11.16;43.35
85458;BME280;75848;42.706;23.292;2024-02-21T12:05:07;95601.28;;;10.81;44.35
85458;BME280;75848;42.706;23.292;2024-02-21T12:07:35;95600.38;;;10.64;44.64
85458;BME280;75848;42.706;23.292;2024-02-21T12:10:11;95609.75;;;11.13;44.34
85458;BME280;75848;42.706;23.292;2024-02-21T12:12:41;95606.69;;;10.85;44.92
85458;BME280;75848;42.706;23.292;2024-02-21T12:15:09;95608.03;;;10.69;44.76
85458;BME280;75848;42.706;23.292;2024-02-21T12:17:39;95609.38;;;10.58;45.49
85458;BME280;75848;42.706;23.292;2024-02-21T12:20:15;95616.19;;;10.39;46.22
85458;BME280;75848;42.706;23.292;2024-02-21T12:22:41;95601.41;;;10.44;45.63
85458;BME280;75848;42.706;23.292;2024-02-21T12:25:25;95598.69;;;10.74;45.66
85458;BME280;75848;42.706;23.292;2024-02-21T12:27:55;95598.78;;;10.67;44.57
85458;BME280;75848;42.706;23.292;2024-02-21T12:30:22;95594.22;;;10.87;44.47
85458;BME280;75848;42.706;23.292;2024-02-21T12:32:48;95598.94;;;10.83;43.76
85458;BME280;75848;42.706;23.292;2024-02-21T12:35:17;95595.97;;;10.74;44.14
85458;BME280;75848;42.706;23.292;2024-02-21T12:37:45;95590.53;;;10.74;44.83
85458;BME280;75848;42.706;23.292;2024-02-21T12:40:11;95594.03;;;10.44;46.16
85458;BME280;75848;42.706;23.292;2024-02-21T12:42:36;95591.31;;;10.44;46.96
85458;BME280;75848;42.706;23.292;2024-02-21T12:45:11;95594.59;;;10.59;46.92
85458;BME280;75848;42.706;23.292;2024-02-21T12:47:37;95593.06;;;10.28;48.53
85458;BME280;75848;42.706;23.292;2024-02-21T12:50:02;95594.94;;;10.34;49.13
85458;BME280;75848;42.706;23.292;2024-02-21T12:52:29;95594.16;;;10.34;49.69
85458;BME280;75848;42.706;23.292;2024-02-21T12:54:56;95583.19;;;10.11;50.06
85458;BME280;75848;42.706;23.292;2024-02-21T12:57:25;95587.78;;;10.17;50.49
85458;BME280;75848;42.706;23.292;2024-02-21T12:59:51;95575.84;;;10.11;50.16
85458;BME280;75848;42.706;23.292;2024-02-21T13:02:19;95582.53;;;9.96;50.88
85458;BME280;75848;42.706;23.292;2024-02-21T13:04:45;95585.56;;;10.05;50.14